Observations for YEOVILTON NAVY, United Kingdom (EGDY)

EGDY 201950Z 16008KT 9999 FEW010 SCT013 09/07 Q1020 GRN NOSIG   
EGDY 201850Z 19011KT 9999 SCT013 BKN015 10/08 Q1021 GRN NOSIG   
EGDY 201750Z 20009KT 9999 SCT013 BKN015 10/08 Q1020 GRN NOSIG   
EGDY 201650Z 19010KT 9999 FEW012 BKN015 10/08 Q1019 WHT TEMPO SCT012 GRN
EGDY 201550Z 21012KT 9999 FEW012 SCT015 BKN025 10/08 Q1019 WHT NOSIG
EGDY 201450Z 21013KT 9999 FEW012 SCT015 BKN035 11/08 Q1019 WHT NOSIG
EGDY 201350Z 21012KT 9999 FEW012 BKN015 11/08 Q1019 WHT NOSIG   
EGDY 201250Z 20014KT 9999 FEW012 SCT015 BKN040 11/08 Q1019 WHT NOSIG
EGDY 201150Z 21017KT 9999 FEW012 SCT018 11/08 Q1019 WHT NOSIG-  
EGDY 201050Z 20016KT 9999 FEW010 BKN018 11/08 Q1019 WHT TEMPO SCT010 GRN
EGDY 201027Z 20014KT 9999 FEW010 BKN020 10/08 Q1019 WHT TEMPO SCT010 GRN
EGDY 201027Z 20014KT 9999 FEW010 BKN020 10/08 Q1019 WHT TEMPO SCT010 GRN
EGDY 200950Z 20011KT 9999 SCT012 BKN035 10/08 Q1019 GRN TEMPO FEW012 BLU
EGDY 200928Z 20012KT 9999 SCT014 BKN090 10/08 Q1018 GRN TEMPO FEW012 BLU
EGDY 200928Z 20012KT 9999 SCT014 BKN090 10/08 Q1018 GRN TEMPO FEW012 BLU
EGDY 200850Z 20012KT 9999 FEW012 BKN090 10/08 Q1018 BLU TEMPO SCT012 GRN
EGDY 200750Z 20012KT 9999 SCT012 BKN080 09/07 Q1017 GRN BECMG FEW012 SCT018 WHT 
EGDY 200650Z 21011KT 9999 BKN013 09/07 Q1017 GRN
EGDY 200550Z 20011KT 9999 FEW013 BKN040 09/07 Q1017 BLU 
EGDY 200450Z 20012KT 9999 FEW013 SCT020 BKN040 09/07 Q1017 WHT  
EGDY 200350Z 20010KT 9999 FEW018 SCT020 BKN035 09/07 Q1017 WHT  
EGDY 200250Z 20013KT 9999 SCT020 BKN035 09/07 Q1017 WHT 
EGDY 200150Z 21012KT 9999 -DZ FEW010 SCT020 BKN035 09/07 Q1018 WHT  
EGDY 200050Z 20010KT 9999 SCT020 BKN040 09/07 Q1018 WHT 
EGDY 192350Z 20012KT 9999 FEW020 SCT040 BKN090 09/06 Q1018 BLU  
EGDY 192250Z 20010KT 9999 FEW020 BKN090 09/06 Q1018 BLU 
EGDY 192150Z 20010KT 9999 FEW020 SCT035 BKN100 09/06 Q1018 BLU NOSIG
EGDY 192050Z 20008KT CAVOK 08/05 Q1018 BLU NOSIG
EGDY 191950Z 19009KT CAVOK 08/06 Q1018 BLU NOSIG